createdAt,value
2017-10-21T00:02:07.026Z,13.39
2017-10-21T00:04:35.347Z,13.43
2017-10-21T00:07:03.669Z,13.44
2017-10-21T00:09:31.990Z,13.38
2017-10-21T00:12:00.310Z,13.47
2017-10-21T00:14:28.619Z,13.45
2017-10-21T00:16:57.778Z,13.40
2017-10-21T00:19:26.090Z,13.42
2017-10-21T00:21:55.170Z,13.39
2017-10-21T00:24:23.483Z,13.29
2017-10-21T00:26:51.823Z,13.24
2017-10-21T00:29:20.130Z,13.22
2017-10-21T00:31:49.206Z,13.19
2017-10-21T00:34:17.509Z,13.21
2017-10-21T00:36:46.591Z,13.20
2017-10-21T00:39:15.671Z,13.23
2017-10-21T00:41:43.986Z,13.19
2017-10-21T00:44:12.297Z,13.22
2017-10-21T00:46:40.614Z,13.17
2017-10-21T00:49:09.753Z,13.15
2017-10-21T00:51:38.077Z,13.06
2017-10-21T00:54:06.396Z,13.08
2017-10-21T00:56:34.714Z,13.06
2017-10-21T00:59:03.010Z,13.06
2017-10-21T01:01:31.343Z,13.06
2017-10-21T01:03:59.650Z,13.12
2017-10-21T01:06:27.984Z,13.09
2017-10-21T01:08:56.291Z,13.14
2017-10-21T01:11:24.607Z,13.17
2017-10-21T01:13:53.686Z,13.18
2017-10-21T01:16:22.027Z,13.19
2017-10-21T01:18:50.373Z,13.14
2017-10-21T01:21:19.461Z,13.15
2017-10-21T01:23:48.543Z,13.13
2017-10-21T01:26:16.869Z,13.19
2017-10-21T01:28:45.182Z,13.18
2017-10-21T01:31:13.521Z,13.18
2017-10-21T01:33:41.835Z,13.19
2017-10-21T01:36:10.143Z,13.22
2017-10-21T01:38:39.223Z,12.99
2017-10-21T01:41:08.308Z,13.04
2017-10-21T01:43:36.643Z,13.12
2017-10-21T01:46:04.969Z,13.12
2017-10-21T01:48:33.299Z,13.09
2017-10-21T01:51:01.607Z,13.04
2017-10-21T01:53:29.917Z,12.99
2017-10-21T01:55:58.996Z,13.04
2017-10-21T01:58:27.323Z,13.04
2017-10-21T02:00:55.623Z,13.07
2017-10-21T02:03:23.946Z,13.16
2017-10-21T02:05:53.030Z,13.19
2017-10-21T02:08:22.157Z,13.22
2017-10-21T02:10:50.510Z,13.26
2017-10-21T02:13:19.630Z,13.32
2017-10-21T02:15:47.935Z,13.31
2017-10-21T02:18:16.246Z,13.38
2017-10-21T02:20:44.579Z,13.38
2017-10-21T02:23:12.924Z,13.37
2017-10-21T02:25:42.010Z,13.36
2017-10-21T02:28:11.122Z,13.36
2017-10-21T02:30:40.232Z,13.35
2017-10-21T02:33:08.553Z,13.37
2017-10-21T02:35:36.866Z,13.39
2017-10-21T02:38:05.949Z,13.38
2017-10-21T02:40:34.268Z,13.34
2017-10-21T02:43:02.598Z,13.35
2017-10-21T02:45:30.958Z,13.32
2017-10-21T02:47:59.276Z,13.35
2017-10-21T02:50:28.341Z,13.26
2017-10-21T02:52:56.667Z,13.29
2017-10-21T02:55:24.970Z,13.21
2017-10-21T02:57:53.283Z,13.17
2017-10-21T03:00:21.585Z,13.22
2017-10-21T03:02:50.662Z,13.16
2017-10-21T03:05:18.975Z,13.06
2017-10-21T03:07:47.277Z,13.04
2017-10-21T03:10:16.338Z,13.06
2017-10-21T03:12:44.654Z,13.08
2017-10-21T03:15:12.961Z,13.11
2017-10-21T03:17:41.279Z,13.07
2017-10-21T03:20:09.581Z,13.00
2017-10-21T03:22:37.899Z,12.96
2017-10-21T03:25:06.982Z,12.87
2017-10-21T03:27:35.295Z,12.81
2017-10-21T03:30:03.602Z,12.75
2017-10-21T03:32:31.917Z,12.64
2017-10-21T03:35:00.223Z,12.57
2017-10-21T03:37:28.558Z,12.56
2017-10-21T03:39:56.865Z,12.49
2017-10-21T03:42:25.939Z,12.40
2017-10-21T03:44:54.250Z,12.26
2017-10-21T03:47:22.574Z,12.18
2017-10-21T03:49:50.904Z,12.19
2017-10-21T03:52:19.207Z,12.13
2017-10-21T03:54:47.524Z,12.03
2017-10-21T03:57:15.834Z,11.95
2017-10-21T03:59:44.150Z,11.89
2017-10-21T04:02:12.451Z,11.85
2017-10-21T04:04:40.776Z,11.80
2017-10-21T04:07:09.073Z,11.70
2017-10-21T04:09:37.385Z,11.64
2017-10-21T04:12:05.682Z,11.66
2017-10-21T04:14:34.774Z,11.64
2017-10-21T04:17:03.838Z,11.68
2017-10-21T04:19:32.153Z,11.76
2017-10-21T04:22:01.226Z,11.83
2017-10-21T04:24:29.542Z,11.85
2017-10-21T04:26:57.841Z,11.90
2017-10-21T04:29:26.153Z,11.85
2017-10-21T04:31:54.461Z,11.75
2017-10-21T04:34:23.537Z,11.74
2017-10-21T04:36:51.854Z,11.77
2017-10-21T04:39:20.162Z,11.80
2017-10-21T04:41:48.476Z,11.77
2017-10-21T04:44:17.562Z,11.74
2017-10-21T04:46:45.862Z,11.75
2017-10-21T04:49:14.941Z,11.79
2017-10-21T04:51:43.251Z,11.73
2017-10-21T04:54:11.562Z,11.80
2017-10-21T04:56:39.865Z,11.77
2017-10-21T04:59:08.178Z,11.71
2017-10-21T05:01:36.478Z,11.68
2017-10-21T05:04:04.798Z,11.73
2017-10-21T05:06:33.102Z,11.68
2017-10-21T05:09:01.410Z,11.70
2017-10-21T05:11:29.711Z,11.70
2017-10-21T05:13:58.030Z,11.72
2017-10-21T05:16:27.112Z,11.68
2017-10-21T05:18:56.203Z,11.70
2017-10-21T05:21:24.510Z,11.68
2017-10-21T05:23:52.829Z,11.70
2017-10-21T05:26:21.893Z,11.74
2017-10-21T05:28:50.202Z,11.77
2017-10-21T05:31:19.320Z,11.75
2017-10-21T05:33:47.638Z,11.70
2017-10-21T05:36:15.952Z,11.65
2017-10-21T05:38:44.266Z,11.59
2017-10-21T05:41:13.356Z,11.58
2017-10-21T05:43:42.444Z,11.57
2017-10-21T05:46:10.747Z,11.52
2017-10-21T05:48:39.076Z,11.52
2017-10-21T05:51:07.374Z,11.57
2017-10-21T05:53:35.690Z,11.55
2017-10-21T05:56:03.989Z,11.49
2017-10-21T05:58:32.354Z,11.58
2017-10-21T06:01:00.666Z,11.62
2017-10-21T06:03:28.973Z,11.64
2017-10-21T06:05:58.063Z,11.67
2017-10-21T06:08:27.130Z,11.65
2017-10-21T06:10:55.442Z,11.59
2017-10-21T06:13:24.516Z,11.60
2017-10-21T06:15:52.821Z,11.73
2017-10-21T06:18:21.885Z,11.68
2017-10-21T06:20:50.224Z,11.67
2017-10-21T06:23:18.530Z,11.67
2017-10-21T06:25:46.844Z,11.69
2017-10-21T06:28:15.950Z,11.79
2017-10-21T06:30:45.032Z,11.65
2017-10-21T06:33:14.102Z,11.78
2017-10-21T06:35:42.419Z,11.70
2017-10-21T06:38:10.723Z,11.76
2017-10-21T06:40:39.034Z,11.75
2017-10-21T06:43:07.341Z,11.78
2017-10-21T06:45:36.437Z,11.77
2017-10-21T06:48:05.513Z,11.85
2017-10-21T06:50:33.823Z,11.93
2017-10-21T06:53:02.131Z,12.00
2017-10-21T06:55:30.442Z,12.01
2017-10-21T06:57:58.750Z,12.07
2017-10-21T07:00:27.837Z,12.01
2017-10-21T07:02:56.902Z,12.07
2017-10-21T07:05:25.216Z,12.22
2017-10-21T07:07:53.514Z,12.19
2017-10-21T07:10:21.828Z,12.21
2017-10-21T07:12:50.141Z,12.14
2017-10-21T07:15:19.228Z,12.28
2017-10-21T07:17:48.294Z,12.42
2017-10-21T07:20:16.615Z,12.37
2017-10-21T07:22:44.924Z,12.49
2017-10-21T07:25:13.241Z,12.61
2017-10-21T07:27:41.550Z,12.65
2017-10-21T07:30:09.862Z,12.74
2017-10-21T07:32:38.167Z,12.68
2017-10-21T07:35:06.488Z,12.54
2017-10-21T07:37:34.801Z,12.55
2017-10-21T07:40:03.152Z,12.54
2017-10-21T07:42:31.453Z,12.67
2017-10-21T07:44:59.765Z,12.55
2017-10-21T07:47:28.078Z,12.79
2017-10-21T07:49:56.411Z,12.70
2017-10-21T07:52:24.719Z,12.78
2017-10-21T07:54:53.809Z,12.77
2017-10-21T07:57:22.878Z,12.69
2017-10-21T07:59:51.182Z,12.73
2017-10-21T08:02:20.263Z,12.76
2017-10-21T08:04:49.342Z,12.80
2017-10-21T08:07:18.429Z,12.82
2017-10-21T08:09:46.751Z,13.00
2017-10-21T08:12:15.830Z,13.22
2017-10-21T08:14:44.899Z,13.09
2017-10-21T08:17:13.213Z,13.02
2017-10-21T08:19:42.445Z,13.12
2017-10-21T08:22:10.750Z,13.04
2017-10-21T08:24:39.058Z,13.29
2017-10-21T08:27:07.371Z,13.34
2017-10-21T08:29:35.686Z,13.29
2017-10-21T08:32:04.005Z,13.42
2017-10-21T08:34:32.314Z,13.45
2017-10-21T08:37:00.629Z,13.63
2017-10-21T08:39:28.932Z,13.35
2017-10-21T08:41:58.001Z,13.63
2017-10-21T08:44:26.309Z,13.32
2017-10-21T08:46:55.390Z,13.34
2017-10-21T08:49:24.458Z,13.34
2017-10-21T08:54:28.327Z,13.47
2017-10-21T08:56:56.652Z,13.51
2017-10-21T08:59:24.957Z,13.59
2017-10-21T09:01:53.271Z,13.70
2017-10-21T09:04:21.579Z,13.96
2017-10-21T09:06:49.896Z,14.08
2017-10-21T09:09:18.966Z,14.07
2017-10-21T09:11:47.278Z,14.28
2017-10-21T09:14:16.346Z,14.35
2017-10-21T09:16:44.666Z,14.66
2017-10-21T09:19:12.962Z,14.83
2017-10-21T09:21:41.290Z,15.12
2017-10-21T09:24:10.282Z,15.24
2017-10-21T09:26:38.598Z,15.18
2017-10-21T09:29:06.918Z,15.12
2017-10-21T09:31:35.227Z,15.15
2017-10-21T09:34:04.294Z,15.14
2017-10-21T09:36:32.589Z,15.04
2017-10-21T09:39:00.907Z,15.05
2017-10-21T09:41:29.274Z,15.29
2017-10-21T09:43:57.599Z,14.96
2017-10-21T09:46:25.910Z,15.06
2017-10-21T09:48:55.043Z,15.04
2017-10-21T09:51:23.345Z,15.16
2017-10-21T09:53:51.686Z,15.42
2017-10-21T09:56:19.994Z,15.54
2017-10-21T09:58:48.314Z,15.76
2017-10-21T10:01:17.387Z,15.84
2017-10-21T10:03:45.722Z,15.86
2017-10-21T10:06:14.025Z,15.97
2017-10-21T10:08:42.339Z,16.04
2017-10-21T10:11:11.413Z,16.06
2017-10-21T10:13:39.724Z,16.31
2017-10-21T10:16:08.128Z,16.41
2017-10-21T10:18:36.444Z,16.37
2017-10-21T10:21:04.758Z,16.18
2017-10-21T10:23:33.087Z,16.57
2017-10-21T10:26:01.386Z,17.27
2017-10-21T10:28:29.703Z,17.25
2017-10-21T10:30:57.998Z,18.08
2017-10-21T10:33:26.311Z,18.24
2017-10-21T10:35:54.614Z,17.49
2017-10-21T10:38:23.698Z,17.67
2017-10-21T10:40:52.022Z,17.54
2017-10-21T10:43:20.335Z,17.75
2017-10-21T10:45:48.700Z,18.08
2017-10-21T10:48:17.015Z,17.73
2017-10-21T10:50:46.091Z,17.21
2017-10-21T10:53:14.409Z,17.62
2017-10-21T10:55:42.714Z,17.37
2017-10-21T10:58:11.029Z,17.24
2017-10-21T11:00:39.335Z,17.25
2017-10-21T11:03:08.454Z,17.22
2017-10-21T11:05:36.785Z,17.20
2017-10-21T11:08:05.106Z,17.27
2017-10-21T11:10:34.978Z,17.18
2017-10-21T11:13:03.295Z,16.89
2017-10-21T11:15:31.623Z,16.84
2017-10-21T11:17:59.956Z,16.96
2017-10-21T11:20:28.274Z,17.06
2017-10-21T11:22:56.583Z,16.94
2017-10-21T11:25:25.666Z,16.82
2017-10-21T11:27:53.962Z,17.07
2017-10-21T11:30:23.046Z,17.36
2017-10-21T11:32:52.121Z,17.25
2017-10-21T11:35:20.454Z,16.78
2017-10-21T11:37:48.755Z,16.59
2017-10-21T11:40:17.070Z,16.67
2017-10-21T11:42:46.134Z,16.55
2017-10-21T11:45:14.456Z,16.31
2017-10-21T11:47:43.530Z,16.64
2017-10-21T11:50:11.845Z,16.65
2017-10-21T11:52:40.147Z,16.50
2017-10-21T11:55:08.466Z,16.68
2017-10-21T11:57:36.865Z,16.90
2017-10-21T12:00:05.182Z,16.85
2017-10-21T12:02:33.503Z,16.92
2017-10-21T12:05:02.590Z,16.83
2017-10-21T12:07:30.898Z,16.91
2017-10-21T12:09:59.294Z,16.82
2017-10-21T12:12:27.596Z,16.93
2017-10-21T12:14:55.914Z,17.20
2017-10-21T12:17:24.998Z,17.23
2017-10-21T12:19:53.309Z,17.53
2017-10-21T12:22:21.610Z,17.80
2017-10-21T12:24:49.927Z,17.82
2017-10-21T12:27:18.242Z,17.49
2017-10-21T12:29:46.554Z,17.44
2017-10-21T12:32:14.870Z,17.17
2017-10-21T12:34:43.950Z,17.17
2017-10-21T12:37:12.258Z,17.01
2017-10-21T12:39:40.574Z,16.93
2017-10-21T12:42:08.884Z,17.00
2017-10-21T12:44:37.216Z,16.97
2017-10-21T12:47:05.519Z,17.09
2017-10-21T12:49:34.598Z,17.05
2017-10-21T12:52:02.906Z,16.96
2017-10-21T12:54:31.224Z,16.97
2017-10-21T12:56:59.530Z,16.85
2017-10-21T12:59:27.840Z,16.65
2017-10-21T13:01:56.158Z,16.55
2017-10-21T13:04:24.470Z,16.39
2017-10-21T13:06:52.786Z,16.42
2017-10-21T13:09:22.540Z,16.46
2017-10-21T13:11:50.874Z,16.47
2017-10-21T13:14:20.072Z,16.29
2017-10-21T13:16:48.414Z,16.34
2017-10-21T13:19:17.043Z,16.48
2017-10-21T13:21:46.125Z,16.73
2017-10-21T13:24:15.206Z,16.70
2017-10-21T13:26:43.525Z,16.92
2017-10-21T13:29:11.826Z,16.84
2017-10-21T13:31:40.149Z,16.71
2017-10-21T13:34:08.457Z,16.88
2017-10-21T13:36:36.770Z,16.79
2017-10-21T13:39:05.078Z,16.84
2017-10-21T13:41:33.393Z,16.80
2017-10-21T13:44:01.699Z,16.61
2017-10-21T13:46:30.010Z,16.52
2017-10-21T13:48:58.310Z,16.46
2017-10-21T13:51:26.625Z,16.52
2017-10-21T13:53:54.925Z,16.21
2017-10-21T13:56:23.238Z,16.20
2017-10-21T13:58:52.315Z,16.21
2017-10-21T14:01:20.638Z,16.17
2017-10-21T14:03:48.947Z,16.21
2017-10-21T14:06:17.256Z,16.24
2017-10-21T14:08:46.382Z,16.23
2017-10-21T14:11:15.490Z,16.23
2017-10-21T14:13:43.809Z,16.05
2017-10-21T14:16:12.571Z,16.21
2017-10-21T14:18:40.894Z,16.39
2017-10-21T14:21:09.209Z,16.33
2017-10-21T14:23:37.585Z,16.11
2017-10-21T14:26:05.891Z,16.12
2017-10-21T14:28:34.209Z,15.99
2017-10-21T14:31:03.277Z,15.86
2017-10-21T14:33:31.599Z,15.69
2017-10-21T14:35:59.991Z,15.53
2017-10-21T14:38:28.317Z,15.61
2017-10-21T14:40:56.634Z,15.42
2017-10-21T14:43:24.950Z,15.30
2017-10-21T14:45:53.267Z,15.14
2017-10-21T14:48:22.350Z,15.21
2017-10-21T14:50:50.659Z,15.10
2017-10-21T14:53:18.971Z,15.08
2017-10-21T14:55:47.280Z,15.10
2017-10-21T14:58:15.594Z,15.07
2017-10-21T15:00:43.898Z,15.09
2017-10-21T15:03:12.212Z,15.12
2017-10-21T15:05:40.528Z,15.21
2017-10-21T15:08:08.834Z,15.00
2017-10-21T15:10:37.139Z,14.99
2017-10-21T15:13:05.450Z,15.01
2017-10-21T15:15:33.803Z,15.06
2017-10-21T15:18:02.120Z,14.89
2017-10-21T15:20:30.438Z,14.91
2017-10-21T15:22:58.753Z,14.87
2017-10-21T15:25:27.823Z,14.99
2017-10-21T15:27:56.135Z,15.10
2017-10-21T15:30:24.441Z,15.11
2017-10-21T15:32:52.757Z,15.15
2017-10-21T15:35:21.087Z,15.23
2017-10-21T15:37:49.407Z,15.23
2017-10-21T15:40:17.719Z,15.27
2017-10-21T15:42:46.045Z,15.25
2017-10-21T15:45:14.345Z,15.16
2017-10-21T15:47:43.432Z,15.12
2017-10-21T15:50:11.745Z,15.03
2017-10-21T15:52:40.063Z,14.99
2017-10-21T15:55:08.368Z,15.06
2017-10-21T15:57:36.684Z,14.98
2017-10-21T16:00:04.986Z,15.01
2017-10-21T16:02:33.310Z,14.99
2017-10-21T16:05:02.389Z,14.84
2017-10-21T16:07:30.702Z,14.79
2017-10-21T16:09:59.019Z,14.69
2017-10-21T16:12:27.334Z,14.80
2017-10-21T16:14:55.651Z,14.70
2017-10-21T16:17:23.967Z,14.76
2017-10-21T16:19:52.285Z,14.71
2017-10-21T16:22:21.359Z,14.74
2017-10-21T16:24:49.675Z,14.66
2017-10-21T16:27:17.984Z,14.65
2017-10-21T16:29:46.297Z,14.60
2017-10-21T16:32:15.365Z,14.61
2017-10-21T16:34:43.722Z,14.58
2017-10-21T16:37:12.036Z,14.60
2017-10-21T16:39:40.344Z,14.63
2017-10-21T16:42:08.646Z,14.50
2017-10-21T16:44:36.955Z,14.50
2017-10-21T16:47:05.808Z,14.50
2017-10-21T16:49:34.125Z,14.57
2017-10-21T16:52:02.436Z,14.58
2017-10-21T16:54:31.514Z,14.43
2017-10-21T16:56:59.821Z,14.42
2017-10-21T16:59:28.138Z,14.45
2017-10-21T17:01:56.438Z,14.47
2017-10-21T17:04:24.775Z,14.48
2017-10-21T17:06:53.074Z,14.44
2017-10-21T17:09:22.163Z,14.42
2017-10-21T17:11:50.466Z,14.45
2017-10-21T17:14:18.798Z,14.35
2017-10-21T17:16:47.100Z,14.38
2017-10-21T17:19:15.418Z,14.40
2017-10-21T17:21:44.482Z,14.43
2017-10-21T17:24:12.807Z,14.42
2017-10-21T17:26:41.124Z,14.34
2017-10-21T17:29:09.433Z,14.31
2017-10-21T17:31:41.956Z,14.30
2017-10-21T17:34:10.269Z,14.28
2017-10-21T17:36:38.566Z,14.32
2017-10-21T17:39:07.646Z,14.32
2017-10-21T17:41:35.946Z,14.39
2017-10-21T17:44:05.033Z,14.25
2017-10-21T17:46:34.113Z,14.24
2017-10-21T17:49:02.426Z,14.18
2017-10-21T17:51:30.730Z,14.15
2017-10-21T17:53:59.055Z,14.11
2017-10-21T17:56:28.140Z,14.03
2017-10-21T17:58:56.462Z,14.05
2017-10-21T18:01:24.846Z,14.07
2017-10-21T18:03:53.211Z,14.01
2017-10-21T18:06:21.517Z,14.07
2017-10-21T18:08:49.826Z,14.06
2017-10-21T18:11:18.138Z,14.00
2017-10-21T18:13:47.225Z,14.05
2017-10-21T18:16:16.302Z,14.05
2017-10-21T18:18:44.598Z,14.05
2017-10-21T18:21:13.682Z,14.07
2017-10-21T18:23:41.993Z,14.03
2017-10-21T18:26:10.301Z,14.08
2017-10-21T18:28:38.602Z,14.04
2017-10-21T18:31:06.917Z,14.04
2017-10-21T18:33:35.228Z,14.01
2017-10-21T18:36:03.546Z,14.03
2017-10-21T18:38:31.882Z,14.06
2017-10-21T18:41:00.239Z,14.03
2017-10-21T18:43:28.562Z,14.02
2017-10-21T18:45:56.874Z,14.03
2017-10-21T18:48:25.969Z,14.03
2017-10-21T18:50:55.077Z,13.95
2017-10-21T18:53:23.387Z,13.97
2017-10-21T18:55:52.484Z,14.00
2017-10-21T18:58:20.813Z,14.01
2017-10-21T19:00:49.917Z,14.03
2017-10-21T19:03:18.995Z,14.05
2017-10-21T19:05:48.090Z,13.99
2017-10-21T19:08:16.425Z,14.00
2017-10-21T19:10:44.738Z,14.02
2017-10-21T19:13:13.060Z,14.04
2017-10-21T19:15:41.454Z,13.98
2017-10-21T19:18:09.774Z,14.01
2017-10-21T19:20:38.126Z,13.96
2017-10-21T19:23:06.455Z,13.92
2017-10-21T19:25:34.768Z,13.90
2017-10-21T19:28:03.107Z,13.93
2017-10-21T19:30:32.218Z,13.93
2017-10-21T19:33:00.546Z,13.95
2017-10-21T19:35:28.854Z,13.95
2017-10-21T19:37:57.935Z,13.96
2017-10-21T19:42:59.930Z,14.03
2017-10-21T19:45:29.012Z,13.97
2017-10-21T19:47:58.102Z,13.94
2017-10-21T19:50:26.417Z,13.85
2017-10-21T19:52:54.748Z,13.77
2017-10-21T19:55:23.069Z,13.79
2017-10-21T19:57:51.391Z,13.77
2017-10-21T20:00:19.702Z,13.83
2017-10-21T20:02:48.791Z,13.81
2017-10-21T20:05:17.932Z,13.89
2017-10-21T20:07:46.250Z,13.93
2017-10-21T20:10:14.581Z,13.94
2017-10-21T20:12:42.892Z,13.94
2017-10-21T20:15:11.206Z,14.00
2017-10-21T20:17:40.313Z,14.06
2017-10-21T20:20:08.622Z,14.08
2017-10-21T20:22:36.950Z,14.06
2017-10-21T20:25:06.032Z,14.14
2017-10-21T20:27:35.123Z,14.16
2017-10-21T20:30:03.442Z,14.14
2017-10-21T20:32:31.766Z,14.18
2017-10-21T20:35:00.073Z,14.16
2017-10-21T20:37:29.161Z,14.13
2017-10-21T20:39:57.479Z,14.15
2017-10-21T20:42:25.805Z,14.16
2017-10-21T20:44:54.897Z,14.08
2017-10-21T20:47:23.237Z,14.14
2017-10-21T20:49:51.551Z,14.12
2017-10-21T20:52:19.879Z,14.03
2017-10-21T20:54:48.186Z,14.02
2017-10-21T20:57:16.504Z,14.06
2017-10-21T20:59:45.581Z,13.98
2017-10-21T21:02:13.903Z,13.99
2017-10-21T21:04:42.212Z,14.05
2017-10-21T21:07:10.594Z,14.07
2017-10-21T21:09:38.913Z,14.09
2017-10-21T21:12:08.009Z,14.14
2017-10-21T21:14:37.092Z,14.13
2017-10-21T21:17:05.422Z,14.11
2017-10-21T21:19:33.759Z,14.19
2017-10-21T21:22:02.890Z,14.21
2017-10-21T21:24:31.198Z,14.16
2017-10-21T21:26:59.550Z,14.19
2017-10-21T21:29:27.862Z,14.20
2017-10-21T21:31:56.178Z,14.27
2017-10-21T21:34:24.500Z,14.33
2017-10-21T21:36:52.811Z,14.33
2017-10-21T21:39:21.133Z,14.36
2017-10-21T21:41:49.501Z,14.37
2017-10-21T21:44:20.172Z,14.43
2017-10-21T21:46:49.262Z,14.40
2017-10-21T21:49:17.686Z,14.38
2017-10-21T21:51:46.812Z,14.39
2017-10-21T21:54:15.177Z,14.39
2017-10-21T21:56:43.562Z,14.38
2017-10-21T21:59:12.018Z,14.34
2017-10-21T22:01:40.869Z,14.34
2017-10-21T22:04:09.285Z,14.32
2017-10-21T22:06:38.418Z,14.27
2017-10-21T22:09:06.791Z,14.21
2017-10-21T22:11:35.202Z,14.28
2017-10-21T22:14:03.634Z,14.21
2017-10-21T22:16:31.997Z,14.12
2017-10-21T22:19:00.375Z,14.17
2017-10-21T22:21:28.734Z,14.22
2017-10-21T22:23:57.082Z,14.17
2017-10-21T22:26:25.398Z,14.12
2017-10-21T22:28:53.766Z,14.09
2017-10-21T22:31:22.113Z,14.14
2017-10-21T22:33:50.478Z,14.11
2017-10-21T22:36:18.841Z,14.10
2017-10-21T22:38:47.178Z,14.09
2017-10-21T22:41:15.505Z,14.06
2017-10-21T22:43:43.857Z,14.05
2017-10-21T22:46:12.187Z,14.03
2017-10-21T22:48:40.528Z,14.07
2017-10-21T22:51:08.848Z,14.00
2017-10-21T22:53:37.174Z,14.04
2017-10-21T22:56:06.286Z,13.99
2017-10-21T22:58:34.674Z,13.97
2017-10-21T23:01:03.006Z,14.00
2017-10-21T23:03:31.366Z,13.96
2017-10-21T23:05:59.739Z,14.00
2017-10-21T23:08:28.964Z,14.03
2017-10-21T23:10:57.319Z,14.02
2017-10-21T23:13:25.698Z,14.07
2017-10-21T23:15:54.015Z,14.01
2017-10-21T23:18:23.087Z,13.96
2017-10-21T23:20:51.420Z,13.93
2017-10-21T23:23:20.778Z,13.88
2017-10-21T23:25:49.108Z,13.87
2017-10-21T23:28:17.416Z,13.91
2017-10-21T23:30:45.752Z,13.87
2017-10-21T23:33:14.101Z,13.80
2017-10-21T23:35:43.225Z,13.80
2017-10-21T23:38:11.593Z,13.82
2017-10-21T23:40:39.933Z,13.77
2017-10-21T23:43:08.280Z,13.74
2017-10-21T23:45:36.638Z,13.81
2017-10-21T23:48:04.955Z,13.87
2017-10-21T23:50:33.298Z,13.89
2017-10-21T23:53:01.602Z,13.93
2017-10-21T23:55:29.937Z,13.89
2017-10-21T23:57:58.258Z,13.87
